Time;durP1;ratioP1;P1;durP2;ratioP2;P2;SDS_P1;SDS_P2;PMS_P1;PMS_P2;Temp;Humidity;BMP_temperature;BMP_pressure;BME280_temperature;BME280_humidity;BME280_pressure;Samples;Min_cycle;Max_cycle;Signal;HPM_P1;HPM_P2
2021/11/06 00:02:43;;;;;;;;;;;16.20;42.90;;;;;;8364923;28;19973;-46
2021/11/06 00:06:44;;;;;;;;;;;16.20;42.90;;;;;;8364645;28;20378;-46
2021/11/06 00:10:46;;;;;;;;;;;16.20;43.00;;;;;;8363946;28;21280;-47
2021/11/06 00:14:47;;;;;;;;;;;16.20;43.00;;;;;;8364192;28;19929;-46
2021/11/06 00:18:47;;;;;;;;;;;16.20;43.00;;;;;;8364087;28;19912;-47
2021/11/06 00:22:48;;;;;;;;;;;16.20;42.90;;;;;;8364513;28;19947;-46
2021/11/06 00:26:51;;;;;;;;;;;16.20;43.00;;;;;;8363842;28;19925;-48
2021/11/06 00:30:52;;;;;;;;;;;16.20;42.90;;;;;;8364406;28;19956;-46
2021/11/06 00:34:53;;;;;;;;;;;16.20;42.90;;;;;;8364301;28;19917;-47
2021/11/06 00:38:53;;;;;;;;;;;16.20;42.90;;;;;;8363559;28;19917;-47
2021/11/06 00:42:54;;;;;;;;;;;16.20;42.80;;;;;;8363955;28;19925;-47
2021/11/06 00:46:54;;;;;;;;;;;16.20;42.80;;;;;;8363792;28;20294;-48
2021/11/06 00:50:55;;;;;;;;;;;16.20;42.80;;;;;;8363212;28;19964;-48
2021/11/06 00:54:55;;;;;;;;;;;16.30;42.80;;;;;;8363676;28;19970;-46
2021/11/06 00:58:56;;;;;;;;;;;16.30;42.80;;;;;;8363454;28;19924;-46
2021/11/06 01:02:56;;;;;;;;;;;16.30;42.70;;;;;;8363406;28;19928;-46
2021/11/06 01:06:56;;;;;;;;;;;16.30;42.70;;;;;;8363644;28;19996;-46
2021/11/06 01:10:57;;;;;;;;;;;16.30;42.70;;;;;;8363612;28;19920;-46
2021/11/06 01:14:57;;;;;;;;;;;16.30;42.60;;;;;;8362930;28;19924;-46
2021/11/06 01:18:58;;;;;;;;;;;16.30;42.60;;;;;;8363335;28;20263;-47
2021/11/06 01:22:59;;;;;;;;;;;16.30;42.60;;;;;;8363424;28;19983;-46
2021/11/06 01:26:59;;;;;;;;;;;16.30;42.60;;;;;;8362809;28;20340;-47
2021/11/06 01:31:00;;;;;;;;;;;16.30;42.70;;;;;;8368549;28;19917;-46
2021/11/06 01:35:01;;;;;;;;;;;16.20;42.60;;;;;;8369458;28;19916;-46
2021/11/06 01:39:01;;;;;;;;;;;16.20;42.60;;;;;;8368935;28;19912;-46
2021/11/06 01:43:02;;;;;;;;;;;16.20;42.70;;;;;;8369567;28;19925;-47
2021/11/06 01:47:03;;;;;;;;;;;16.20;42.70;;;;;;8369218;28;19928;-49
2021/11/06 01:51:04;;;;;;;;;;;16.20;42.70;;;;;;8368690;28;20317;-47
2021/11/06 01:55:05;;;;;;;;;;;16.20;42.70;;;;;;8368997;28;19921;-48
2021/11/06 01:59:06;;;;;;;;;;;16.20;43.30;;;;;;8369024;28;19912;-49
2021/11/06 02:03:08;;;;;;;;;;;16.10;42.70;;;;;;8368238;28;20050;-46
2021/11/06 02:07:08;;;;;;;;;;;16.10;42.70;;;;;;8368988;28;20354;-46
2021/11/06 02:11:09;;;;;;;;;;;16.10;42.70;;;;;;8360263;28;19921;-46
2021/11/06 02:15:10;;;;;;;;;;;16.10;42.70;;;;;;8367845;28;20332;-47
2021/11/06 02:19:11;;;;;;;;;;;16.10;42.70;;;;;;8368222;28;19917;-46
2021/11/06 02:23:11;;;;;;;;;;;16.10;42.70;;;;;;8368284;28;20431;-47
2021/11/06 02:27:12;;;;;;;;;;;16.10;42.70;;;;;;8367540;28;19999;-47
2021/11/06 02:31:13;;;;;;;;;;;16.10;42.70;;;;;;8367720;28;19917;-47
2021/11/06 02:35:13;;;;;;;;;;;16.10;42.70;;;;;;8367964;28;20275;-47
2021/11/06 02:39:14;;;;;;;;;;;16.10;42.70;;;;;;8366975;28;19920;-46
2021/11/06 02:43:14;;;;;;;;;;;16.00;42.70;;;;;;8367748;28;19921;-46
2021/11/06 02:47:15;;;;;;;;;;;16.00;42.70;;;;;;8367209;28;19982;-46
2021/11/06 02:51:16;;;;;;;;;;;16.00;42.70;;;;;;8367293;28;19924;-46
2021/11/06 02:55:16;;;;;;;;;;;16.00;42.70;;;;;;8367315;28;20003;-48
2021/11/06 02:59:17;;;;;;;;;;;16.00;42.70;;;;;;8366881;28;19958;-46
2021/11/06 03:03:17;;;;;;;;;;;16.10;42.60;;;;;;8367225;28;19925;-46
2021/11/06 03:07:18;;;;;;;;;;;16.10;42.60;;;;;;8366833;28;20029;-46
2021/11/06 03:11:18;;;;;;;;;;;16.10;42.50;;;;;;8366297;28;19920;-45
2021/11/06 03:15:20;;;;;;;;;;;16.10;42.50;;;;;;8366617;28;19921;-47
2021/11/06 03:19:21;;;;;;;;;;;16.10;42.40;;;;;;8366687;28;19913;-46
2021/11/06 03:23:23;;;;;;;;;;;16.10;42.40;;;;;;8365623;28;19929;-47
2021/11/06 03:27:24;;;;;;;;;;;16.10;42.40;;;;;;8366322;28;19921;-49
2021/11/06 03:31:24;;;;;;;;;;;16.10;42.30;;;;;;8365972;28;20342;-47
2021/11/06 03:35:25;;;;;;;;;;;16.10;42.30;;;;;;8365467;28;19917;-49
2021/11/06 03:39:25;;;;;;;;;;;16.10;42.30;;;;;;8366199;28;19913;-49
2021/11/06 03:43:26;;;;;;;;;;;16.10;42.30;;;;;;8365994;28;19925;-50
2021/11/06 03:47:26;;;;;;;;;;;16.10;42.30;;;;;;8364954;28;19936;-46
2021/11/06 03:51:27;;;;;;;;;;;16.10;42.30;;;;;;8364481;28;19916;-47
2021/11/06 03:55:27;;;;;;;;;;;16.10;42.30;;;;;;8365416;28;20289;-47
2021/11/06 03:59:28;;;;;;;;;;;16.10;42.30;;;;;;8364831;28;19913;-47
2021/11/06 04:03:28;;;;;;;;;;;16.10;42.30;;;;;;8364816;28;20046;-46
2021/11/06 04:07:29;;;;;;;;;;;16.10;42.40;;;;;;8365079;28;19956;-46
2021/11/06 04:11:29;;;;;;;;;;;16.10;42.40;;;;;;8364403;28;19928;-46
2021/11/06 04:15:30;;;;;;;;;;;16.00;42.40;;;;;;8364936;28;19975;-46
2021/11/06 04:19:30;;;;;;;;;;;16.00;42.40;;;;;;8364610;28;19943;-46
2021/11/06 04:23:31;;;;;;;;;;;16.00;42.40;;;;;;8364096;28;19925;-46
2021/11/06 04:27:31;;;;;;;;;;;16.00;42.40;;;;;;8364563;28;19917;-46
2021/11/06 04:31:32;;;;;;;;;;;16.00;42.40;;;;;;8364283;28;20370;-47
2021/11/06 04:35:32;;;;;;;;;;;16.00;42.40;;;;;;8363733;28;19924;-47
2021/11/06 04:39:33;;;;;;;;;;;16.00;42.40;;;;;;8364227;28;19919;-46
2021/11/06 04:43:34;;;;;;;;;;;16.00;42.40;;;;;;8363987;28;19970;-47
2021/11/06 04:47:35;;;;;;;;;;;16.00;42.40;;;;;;8363435;28;19924;-49
2021/11/06 04:51:35;;;;;;;;;;;16.00;42.40;;;;;;8364024;28;20030;-48
2021/11/06 04:55:36;;;;;;;;;;;16.00;42.40;;;;;;8363608;28;19924;-48
2021/11/06 04:59:36;;;;;;;;;;;16.00;42.40;;;;;;8363433;28;19913;-47
2021/11/06 05:03:36;;;;;;;;;;;16.00;42.40;;;;;;8368482;28;19931;-46
2021/11/06 05:07:37;;;;;;;;;;;15.90;42.40;;;;;;8372941;28;20492;-46
2021/11/06 05:11:38;;;;;;;;;;;16.00;42.40;;;;;;8374205;28;19923;-46
2021/11/06 05:15:39;;;;;;;;;;;16.00;42.40;;;;;;8374379;28;19923;-46
2021/11/06 05:19:39;;;;;;;;;;;15.90;42.40;;;;;;8374575;28;19916;-46
2021/11/06 05:23:39;;;;;;;;;;;15.90;42.40;;;;;;8373882;28;19924;-46
2021/11/06 05:27:40;;;;;;;;;;;16.00;42.40;;;;;;8374320;28;19924;-47
2021/11/06 05:31:40;;;;;;;;;;;15.90;42.40;;;;;;8374182;28;19917;-47
2021/11/06 05:35:41;;;;;;;;;;;15.90;42.40;;;;;;8373568;28;20374;-46
2021/11/06 05:39:41;;;;;;;;;;;15.90;42.30;;;;;;8374198;28;19916;-46
2021/11/06 05:43:42;;;;;;;;;;;15.90;42.40;;;;;;8374233;28;19924;-47
2021/11/06 05:47:43;;;;;;;;;;;15.90;42.90;;;;;;8373595;28;19917;-48
2021/11/06 05:51:43;;;;;;;;;;;15.90;42.40;;;;;;8373989;28;20381;-48
2021/11/06 05:55:44;;;;;;;;;;;15.90;42.40;;;;;;8374144;28;19920;-47
2021/11/06 05:59:44;;;;;;;;;;;15.80;42.40;;;;;;8373503;28;19924;-46
2021/11/06 06:03:45;;;;;;;;;;;15.80;42.40;;;;;;8373674;28;20270;-48
2021/11/06 06:07:45;;;;;;;;;;;15.80;42.30;;;;;;8373687;28;20422;-47
2021/11/06 06:11:46;;;;;;;;;;;15.80;42.40;;;;;;8373271;28;19917;-48
2021/11/06 06:15:46;;;;;;;;;;;15.80;42.30;;;;;;8369492;28;19913;-49
2021/11/06 06:19:47;;;;;;;;;;;15.80;42.40;;;;;;8368249;28;19917;-48
2021/11/06 06:23:48;;;;;;;;;;;15.90;42.30;;;;;;8367837;28;19929;-47
2021/11/06 06:27:48;;;;;;;;;;;15.90;42.30;;;;;;8368204;28;19916;-47
2021/11/06 06:31:49;;;;;;;;;;;16.00;42.30;;;;;;8367961;28;20432;-48
2021/11/06 06:35:49;;;;;;;;;;;16.00;42.30;;;;;;8367542;28;19925;-47
2021/11/06 06:39:50;;;;;;;;;;;16.00;42.30;;;;;;8367793;28;19960;-47
2021/11/06 06:43:51;;;;;;;;;;;16.00;42.30;;;;;;8367615;28;19925;-47
2021/11/06 06:47:52;;;;;;;;;;;16.00;42.20;;;;;;8367051;28;19917;-46
2021/11/06 06:51:52;;;;;;;;;;;16.00;42.10;;;;;;8367623;28;19913;-49
2021/11/06 06:55:53;;;;;;;;;;;16.00;42.00;;;;;;8367591;28;19921;-47
2021/11/06 06:59:53;;;;;;;;;;;16.10;42.00;;;;;;8365461;28;19917;-51
2021/11/06 07:03:54;;;;;;;;;;;16.10;42.00;;;;;;8366795;28;19929;-48
2021/11/06 07:07:56;;;;;;;;;;;16.00;42.00;;;;;;8367052;28;19913;-50
2021/11/06 07:11:56;;;;;;;;;;;16.10;42.00;;;;;;8366020;28;20262;-47
2021/11/06 07:15:57;;;;;;;;;;;16.00;41.90;;;;;;8366769;28;19912;-47
2021/11/06 07:19:58;;;;;;;;;;;16.00;42.00;;;;;;8365035;28;19920;-49
2021/11/06 07:23:58;;;;;;;;;;;16.00;42.00;;;;;;8365776;28;19921;-48
2021/11/06 07:27:59;;;;;;;;;;;16.00;42.00;;;;;;8364853;28;20251;-47
2021/11/06 07:31:59;;;;;;;;;;;16.00;42.00;;;;;;8366105;28;20418;-47
2021/11/06 07:36:00;;;;;;;;;;;16.00;42.00;;;;;;8365790;28;19916;-47
2021/11/06 07:40:00;;;;;;;;;;;16.00;42.00;;;;;;8365658;28;20003;-48
2021/11/06 07:44:01;;;;;;;;;;;16.00;42.00;;;;;;8365591;28;20008;-47
2021/11/06 07:48:01;;;;;;;;;;;16.00;42.00;;;;;;8365003;28;20289;-48
2021/11/06 07:52:02;;;;;;;;;;;16.00;42.00;;;;;;8365143;28;20012;-48
2021/11/06 07:56:03;;;;;;;;;;;16.00;42.00;;;;;;8365935;28;19974;-46
2021/11/06 08:00:06;;;;;;;;;;;16.00;42.00;;;;;;8364207;28;20396;-48
2021/11/06 08:04:06;;;;;;;;;;;16.00;42.00;;;;;;8364835;28;20034;-48
2021/11/06 08:08:07;;;;;;;;;;;15.90;42.00;;;;;;8354036;28;19917;-46
2021/11/06 08:12:07;;;;;;;;;;;15.90;42.10;;;;;;8337730;28;19944;-47
2021/11/06 08:16:08;;;;;;;;;;;15.90;42.10;;;;;;8364738;28;19913;-48
2021/11/06 08:20:09;;;;;;;;;;;15.90;42.10;;;;;;8364483;28;19921;-46
2021/11/06 08:24:09;;;;;;;;;;;15.90;42.10;;;;;;8363971;28;19917;-46
2021/11/06 08:28:10;;;;;;;;;;;15.90;42.10;;;;;;8364070;28;19999;-47
2021/11/06 08:32:11;;;;;;;;;;;15.90;42.10;;;;;;8364092;28;19925;-47
2021/11/06 08:36:11;;;;;;;;;;;16.00;42.60;;;;;;8363991;28;19913;-46
2021/11/06 08:40:12;;;;;;;;;;;16.00;42.10;;;;;;8363510;28;19920;-47
2021/11/06 08:44:16;;;;;;;;;;;16.00;42.10;;;;;;8363957;28;20309;-45
2021/11/06 08:48:17;;;;;;;;;;;16.00;42.10;;;;;;8363837;28;19970;-48
2021/11/06 08:52:20;;;;;;;;;;;15.90;42.00;;;;;;8363793;28;19917;-47
2021/11/06 08:56:24;;;;;;;;;;;15.90;42.10;;;;;;8364050;28;19920;-49
2021/11/06 09:00:45;;;;;;;;;;;16.00;42.10;;;;;;8363648;28;19928;-48
2021/11/06 09:04:47;;;;;;;;;;;16.00;42.10;;;;;;8362995;28;20323;-48
2021/11/06 09:08:49;;;;;;;;;;;16.00;42.10;;;;;;8363003;28;19917;-46
2021/11/06 09:12:49;;;;;;;;;;;15.90;42.00;;;;;;8363702;28;20263;-47
2021/11/06 09:16:50;;;;;;;;;;;16.00;42.10;;;;;;8363558;28;19921;-49
2021/11/06 09:20:51;;;;;;;;;;;16.00;42.10;;;;;;8363274;28;19921;-51
2021/11/06 09:24:51;;;;;;;;;;;15.90;42.10;;;;;;8363212;28;20377;-46
2021/11/06 09:28:52;;;;;;;;;;;15.90;42.10;;;;;;8363320;28;19939;-48
2021/11/06 09:32:52;;;;;;;;;;;16.00;42.20;;;;;;8362997;28;20309;-47
2021/11/06 09:36:53;;;;;;;;;;;16.00;42.20;;;;;;8363664;28;19916;-47
2021/11/06 09:40:53;;;;;;;;;;;15.90;42.20;;;;;;8363158;28;19929;-47
2021/11/06 09:44:54;;;;;;;;;;;16.00;42.20;;;;;;8362588;28;20370;-47
2021/11/06 09:48:54;;;;;;;;;;;16.00;42.30;;;;;;8363333;28;19924;-48
2021/11/06 09:52:56;;;;;;;;;;;16.00;42.30;;;;;;8369036;28;19963;-47
2021/11/06 09:56:57;;;;;;;;;;;16.00;42.30;;;;;;8369432;28;19959;-48
2021/11/06 10:00:57;;;;;;;;;;;16.00;42.30;;;;;;8368646;28;19925;-47
2021/11/06 10:04:58;;;;;;;;;;;16.00;42.30;;;;;;8368840;28;19924;-47
2021/11/06 10:08:58;;;;;;;;;;;16.00;42.30;;;;;;8368330;28;19917;-47
2021/11/06 10:12:59;;;;;;;;;;;16.00;42.30;;;;;;8368600;28;20332;-47
2021/11/06 10:17:01;;;;;;;;;;;16.00;42.30;;;;;;8368830;28;19924;-48
2021/11/06 10:21:03;;;;;;;;;;;16.10;42.30;;;;;;8367907;28;19925;-50
2021/11/06 10:25:04;;;;;;;;;;;16.00;42.30;;;;;;8368337;28;19952;-48
2021/11/06 10:29:07;;;;;;;;;;;16.10;42.30;;;;;;8368030;28;19917;-47
2021/11/06 10:33:10;;;;;;;;;;;16.10;42.30;;;;;;8367594;28;19978;-48
2021/11/06 10:37:12;;;;;;;;;;;16.10;42.30;;;;;;8368260;28;19917;-47
2021/11/06 10:41:13;;;;;;;;;;;16.10;42.30;;;;;;8367700;28;20373;-47
2021/11/06 10:45:15;;;;;;;;;;;16.10;42.30;;;;;;8367135;28;19917;-47
2021/11/06 10:49:35;;;;;;;;;;;16.10;42.30;;;;;;8367731;28;19913;-47
2021/11/06 10:53:40;;;;;;;;;;;16.10;42.30;;;;;;8367093;28;20277;-47
2021/11/06 10:57:41;;;;;;;;;;;16.10;42.30;;;;;;8367555;28;19927;-47
2021/11/06 11:01:44;;;;;;;;;;;16.10;42.30;;;;;;8366849;28;20286;-46
2021/11/06 11:05:45;;;;;;;;;;;16.10;42.30;;;;;;8366565;28;19940;-47
2021/11/06 11:09:45;;;;;;;;;;;16.10;42.40;;;;;;8367101;28;19923;-49
2021/11/06 11:13:47;;;;;;;;;;;16.20;42.40;;;;;;8345098;28;19913;-47
2021/11/06 11:17:47;;;;;;;;;;;16.20;42.40;;;;;;8366166;28;20003;-47
2021/11/06 11:21:48;;;;;;;;;;;16.20;42.30;;;;;;8366688;28;19925;-48
2021/11/06 11:25:49;;;;;;;;;;;16.30;42.30;;;;;;8366534;28;20418;-49
2021/11/06 11:29:49;;;;;;;;;;;16.30;42.30;;;;;;8365849;28;19921;-48
2021/11/06 11:33:50;;;;;;;;;;;16.30;42.30;;;;;;8366336;28;19947;-49
2021/11/06 11:37:53;;;;;;;;;;;16.30;42.30;;;;;;8366062;28;20000;-47
2021/11/06 11:42:06;;;;;;;;;;;16.30;42.30;;;;;;8365502;28;19932;-47
2021/11/06 11:46:08;;;;;;;;;;;16.30;42.30;;;;;;8365850;28;19963;-48
2021/11/06 11:50:15;;;;;;;;;;;16.40;42.30;;;;;;8365617;28;19913;-47
2021/11/06 11:54:16;;;;;;;;;;;16.40;42.30;;;;;;8365226;28;20005;-48
2021/11/06 11:58:20;;;;;;;;;;;16.40;42.20;;;;;;8365589;28;19924;-51
2021/11/06 12:02:28;;;;;;;;;;;16.40;42.20;;;;;;8364998;28;19978;-47
2021/11/06 12:06:29;;;;;;;;;;;16.40;42.20;;;;;;8365425;28;19917;-47
2021/11/06 12:10:32;;;;;;;;;;;16.40;42.20;;;;;;8365058;28;19943;-49
2021/11/06 12:14:42;;;;;;;;;;;16.40;42.20;;;;;;8363785;28;19954;-49
2021/11/06 12:18:57;;;;;;;;;;;16.40;42.20;;;;;;8370529;28;19956;-48
2021/11/06 12:22:57;;;;;;;;;;;16.40;42.30;;;;;;8364766;28;19967;-48
2021/11/06 12:26:59;;;;;;;;;;;16.40;42.20;;;;;;8364328;28;19924;-48
2021/11/06 12:31:20;;;;;;;;;;;16.40;42.30;;;;;;8364489;28;20370;-48
2021/11/06 12:35:22;;;;;;;;;;;16.40;42.30;;;;;;8363770;28;19920;-48
2021/11/06 12:39:41;;;;;;;;;;;16.40;42.30;;;;;;8364384;28;19924;-47
2021/11/06 12:43:51;;;;;;;;;;;16.40;42.30;;;;;;8364043;28;19932;-47
2021/11/06 12:48:06;;;;;;;;;;;16.40;42.30;;;;;;8363766;28;20421;-48
2021/11/06 12:52:07;;;;;;;;;;;16.40;42.30;;;;;;8364137;28;19921;-49
2021/11/06 12:56:07;;;;;;;;;;;16.40;42.30;;;;;;8363772;28;19921;-49
2021/11/06 13:00:13;;;;;;;;;;;16.50;42.30;;;;;;8363169;28;19924;-50
2021/11/06 13:04:15;;;;;;;;;;;16.40;42.30;;;;;;8363923;28;20366;-48
2021/11/06 13:08:19;;;;;;;;;;;16.40;42.30;;;;;;8363482;28;19920;-50
2021/11/06 13:12:20;;;;;;;;;;;16.40;42.30;;;;;;8363323;28;19944;-50
2021/11/06 13:16:20;;;;;;;;;;;16.40;42.30;;;;;;8363440;28;19924;-46
2021/11/06 13:20:21;;;;;;;;;;;16.40;42.30;;;;;;8362849;28;19947;-50
2021/11/06 13:24:22;;;;;;;;;;;16.40;42.20;;;;;;8366067;28;19916;-45
2021/11/06 13:28:23;;;;;;;;;;;16.50;42.30;;;;;;8370298;28;19913;-46
2021/11/06 13:32:24;;;;;;;;;;;16.40;42.30;;;;;;8369902;28;19917;-46
2021/11/06 13:36:25;;;;;;;;;;;16.40;42.20;;;;;;8369823;28;19982;-48
2021/11/06 13:40:26;;;;;;;;;;;16.50;42.30;;;;;;8369553;28;19921;-46
2021/11/06 13:44:27;;;;;;;;;;;16.40;42.20;;;;;;8369306;28;19939;-47
2021/11/06 13:48:29;;;;;;;;;;;16.50;42.30;;;;;;8369983;28;19995;-46
2021/11/06 13:52:29;;;;;;;;;;;16.50;42.20;;;;;;8369343;28;19924;-47
2021/11/06 13:56:50;;;;;;;;;;;16.50;42.30;;;;;;8368830;28;19925;-47
2021/11/06 14:00:50;;;;;;;;;;;16.50;42.20;;;;;;8368341;28;19932;-47
2021/11/06 14:04:53;;;;;;;;;;;16.50;42.20;;;;;;8368954;28;20396;-46
2021/11/06 14:09:04;;;;;;;;;;;16.50;42.10;;;;;;8367530;28;19913;-46
2021/11/06 14:13:09;;;;;;;;;;;16.50;42.20;;;;;;8368968;28;20034;-48
2021/11/06 14:17:10;;;;;;;;;;;16.50;42.20;;;;;;8366741;28;19971;-48
2021/11/06 14:21:26;;;;;;;;;;;16.40;41.00;;;;;;8367182;28;20445;-47
2021/11/06 14:25:31;;;;;;;;;;;16.20;39.60;;;;;;8366013;28;19963;-48
2021/11/06 14:29:32;;;;;;;;;;;16.00;38.60;;;;;;8366891;28;19970;-49
2021/11/06 14:33:34;;;;;;;;;;;16.00;39.90;;;;;;8366116;28;19917;-50
2021/11/06 14:37:35;;;;;;;;;;;16.00;41.00;;;;;;8361921;28;19924;-48
2021/11/06 14:41:50;;;;;;;;;;;16.20;41.10;;;;;;8364979;28;19932;-50
2021/11/06 14:45:56;;;;;;;;;;;16.20;40.90;;;;;;8367061;28;19931;-51
2021/11/06 14:49:58;;;;;;;;;;;16.30;41.60;;;;;;8367529;28;19974;-49
2021/11/06 14:53:59;;;;;;;;;;;16.40;41.80;;;;;;8367068;28;19923;-53
2021/11/06 14:57:59;;;;;;;;;;;16.50;42.10;;;;;;8367074;28;20000;-49
2021/11/06 15:02:00;;;;;;;;;;;16.50;42.20;;;;;;8366418;28;19990;-50
2021/11/06 15:06:07;;;;;;;;;;;16.60;42.30;;;;;;8366605;28;20362;-52
2021/11/06 15:10:08;;;;;;;;;;;16.60;42.40;;;;;;8367203;28;19917;-51
2021/11/06 15:14:09;;;;;;;;;;;16.70;42.50;;;;;;8367176;28;19917;-50
2021/11/06 15:18:09;;;;;;;;;;;16.70;42.60;;;;;;8364995;28;19923;-48
2021/11/06 15:22:10;;;;;;;;;;;16.70;42.60;;;;;;8366455;28;19974;-48
2021/11/06 15:26:10;;;;;;;;;;;16.70;42.90;;;;;;8366568;28;19928;-48
2021/11/06 15:30:11;;;;;;;;;;;16.80;43.10;;;;;;8364459;28;20378;-48
2021/11/06 15:34:11;;;;;;;;;;;16.80;43.20;;;;;;8365631;28;19978;-47
2021/11/06 15:38:12;;;;;;;;;;;16.80;42.70;;;;;;8365879;28;20362;-47
2021/11/06 15:42:12;;;;;;;;;;;16.80;42.50;;;;;;8365210;28;20069;-48
2021/11/06 15:46:13;;;;;;;;;;;16.70;42.30;;;;;;8363420;28;19971;-48
2021/11/06 15:50:14;;;;;;;;;;;16.70;42.80;;;;;;8361611;28;19924;-47
2021/11/06 15:54:14;;;;;;;;;;;16.70;42.50;;;;;;8362280;28;19948;-48
2021/11/06 15:58:15;;;;;;;;;;;16.70;42.70;;;;;;8365580;28;19943;-48
2021/11/06 16:02:16;;;;;;;;;;;16.60;42.60;;;;;;8364850;28;19990;-47
2021/11/06 16:06:16;;;;;;;;;;;16.60;42.70;;;;;;8365457;28;19967;-48
2021/11/06 16:10:17;;;;;;;;;;;16.60;42.60;;;;;;8365165;28;19924;-47
2021/11/06 16:14:17;;;;;;;;;;;16.50;42.50;;;;;;8364743;28;19916;-47
2021/11/06 16:18:25;;;;;;;;;;;16.50;42.50;;;;;;8364752;28;19959;-48
2021/11/06 16:22:25;;;;;;;;;;;16.60;42.60;;;;;;8364824;28;20015;-48
2021/11/06 16:26:26;;;;;;;;;;;16.50;42.50;;;;;;8364297;28;19917;-48
2021/11/06 16:30:27;;;;;;;;;;;16.50;42.40;;;;;;8364550;28;20369;-48
2021/11/06 16:34:27;;;;;;;;;;;16.50;42.30;;;;;;8364761;28;19917;-49
2021/11/06 16:38:28;;;;;;;;;;;16.50;42.30;;;;;;8363939;28;19916;-48
2021/11/06 16:42:28;;;;;;;;;;;16.50;42.90;;;;;;8364023;28;19925;-47
2021/11/06 16:46:29;;;;;;;;;;;16.50;42.30;;;;;;8364448;28;19917;-49
2021/11/06 16:50:30;;;;;;;;;;;16.50;42.30;;;;;;8363626;28;19923;-48
2021/11/06 16:54:30;;;;;;;;;;;16.50;42.30;;;;;;8363969;28;19956;-47
2021/11/06 16:58:31;;;;;;;;;;;16.50;42.30;;;;;;8363639;28;20083;-47
2021/11/06 17:02:31;;;;;;;;;;;16.50;42.30;;;;;;8350149;28;20016;-48
2021/11/06 17:06:32;;;;;;;;;;;16.50;42.30;;;;;;8344570;28;20319;-47
2021/11/06 17:10:33;;;;;;;;;;;16.40;42.30;;;;;;8363784;28;19970;-48
2021/11/06 17:14:33;;;;;;;;;;;16.40;42.30;;;;;;8363532;28;20291;-48
2021/11/06 17:18:34;;;;;;;;;;;16.40;42.30;;;;;;8363363;28;19917;-48
2021/11/06 17:22:34;;;;;;;;;;;16.40;42.30;;;;;;8363242;28;19928;-49
2021/11/06 17:26:37;;;;;;;;;;;16.40;42.30;;;;;;8363070;28;19924;-48
2021/11/06 17:30:38;;;;;;;;;;;16.40;42.20;;;;;;8363352;28;20007;-51
2021/11/06 17:34:39;;;;;;;;;;;16.40;42.20;;;;;;8363458;28;19923;-49
2021/11/06 17:38:39;;;;;;;;;;;16.40;42.20;;;;;;8362674;28;19940;-49
2021/11/06 17:42:40;;;;;;;;;;;16.40;42.20;;;;;;8363409;28;20340;-47
2021/11/06 17:46:41;;;;;;;;;;;16.40;42.20;;;;;;8363488;28;20332;-47
2021/11/06 17:54:43;;;;;;;;;;;16.40;42.20;;;;;;8363530;28;20302;-48
2021/11/06 17:58:48;;;;;;;;;;;16.30;42.10;;;;;;8362905;28;19923;-49
2021/11/06 18:02:49;;;;;;;;;;;16.40;42.10;;;;;;8362259;28;19925;-49
2021/11/06 18:06:50;;;;;;;;;;;16.40;42.20;;;;;;8362701;28;20361;-49
2021/11/06 18:10:50;;;;;;;;;;;16.30;42.10;;;;;;8364196;28;20019;-48
2021/11/06 18:14:51;;;;;;;;;;;16.40;42.10;;;;;;8368463;28;20011;-48
2021/11/06 18:18:51;;;;;;;;;;;16.40;42.10;;;;;;8368799;28;20003;-49
2021/11/06 18:22:52;;;;;;;;;;;16.30;42.10;;;;;;8368230;28;19932;-48
2021/11/06 18:26:52;;;;;;;;;;;16.30;42.00;;;;;;8367895;28;20369;-49
2021/11/06 18:30:53;;;;;;;;;;;16.30;42.00;;;;;;8368215;28;19956;-49
2021/11/06 18:34:54;;;;;;;;;;;16.30;42.10;;;;;;8368250;28;19917;-49
2021/11/06 18:38:55;;;;;;;;;;;16.30;42.10;;;;;;8367615;28;20396;-49
2021/11/06 18:42:56;;;;;;;;;;;16.30;42.10;;;;;;8367954;28;20011;-48
2021/11/06 18:47:05;;;;;;;;;;;16.30;42.10;;;;;;8367750;28;19917;-50
2021/11/06 18:51:05;;;;;;;;;;;16.30;42.60;;;;;;8367618;28;20011;-48
2021/11/06 18:55:06;;;;;;;;;;;16.30;42.10;;;;;;8367962;28;19979;-48
2021/11/06 18:59:06;;;;;;;;;;;16.30;42.00;;;;;;8367117;28;19917;-48
2021/11/06 19:03:07;;;;;;;;;;;16.30;42.00;;;;;;8366626;28;20405;-48
2021/11/06 19:07:08;;;;;;;;;;;16.30;42.00;;;;;;8367050;28;20259;-49
2021/11/06 19:11:08;;;;;;;;;;;16.30;42.10;;;;;;8367049;28;20290;-48
2021/11/06 19:15:08;;;;;;;;;;;16.30;42.00;;;;;;8366535;28;19917;-49
2021/11/06 19:19:09;;;;;;;;;;;16.30;42.00;;;;;;8366863;28;19951;-47
2021/11/06 19:23:10;;;;;;;;;;;16.30;42.00;;;;;;8365784;28;19929;-48
2021/11/06 19:27:14;;;;;;;;;;;16.30;42.00;;;;;;8365864;28;20269;-47
2021/11/06 19:31:15;;;;;;;;;;;16.30;42.00;;;;;;8366179;28;19970;-47
2021/11/06 19:35:16;;;;;;;;;;;16.30;42.00;;;;;;8365950;28;19924;-46
2021/11/06 19:39:19;;;;;;;;;;;16.30;42.00;;;;;;8365976;28;20326;-47
2021/11/06 19:43:20;;;;;;;;;;;16.20;42.00;;;;;;8365935;28;19925;-47
2021/11/06 19:47:23;;;;;;;;;;;16.20;42.00;;;;;;8365267;28;19921;-47
2021/11/06 19:51:24;;;;;;;;;;;16.20;41.90;;;;;;8365906;28;19925;-48
2021/11/06 19:55:24;;;;;;;;;;;16.20;42.00;;;;;;8366349;28;19929;-50
2021/11/06 19:59:25;;;;;;;;;;;16.20;42.00;;;;;;8365042;28;20297;-47
2021/11/06 20:03:25;;;;;;;;;;;16.20;42.00;;;;;;8364799;28;19924;-51
2021/11/06 20:07:26;;;;;;;;;;;16.20;41.90;;;;;;8365329;28;19916;-51
2021/11/06 20:11:26;;;;;;;;;;;16.20;42.00;;;;;;8364036;28;19917;-51
2021/11/06 20:15:27;;;;;;;;;;;16.20;41.90;;;;;;8365746;28;19975;-50
2021/11/06 20:19:27;;;;;;;;;;;16.20;41.90;;;;;;8364761;28;20004;-49
2021/11/06 20:23:28;;;;;;;;;;;16.20;41.90;;;;;;8364218;28;19932;-49
2021/11/06 20:27:29;;;;;;;;;;;16.20;41.90;;;;;;8364629;28;20415;-49
2021/11/06 20:31:30;;;;;;;;;;;16.10;41.90;;;;;;8364572;28;19927;-49
2021/11/06 20:35:31;;;;;;;;;;;16.10;41.90;;;;;;8363845;28;19936;-48
2021/11/06 20:39:32;;;;;;;;;;;16.10;41.90;;;;;;8364174;28;20386;-48
2021/11/06 20:43:32;;;;;;;;;;;16.10;41.80;;;;;;8364066;28;19925;-50
2021/11/06 20:47:33;;;;;;;;;;;16.10;41.80;;;;;;8363437;28;20316;-48
2021/11/06 20:51:34;;;;;;;;;;;16.10;41.80;;;;;;8364318;28;19978;-49
2021/11/06 20:55:35;;;;;;;;;;;16.10;41.80;;;;;;8364757;28;20313;-48
2021/11/06 20:59:35;;;;;;;;;;;16.10;41.70;;;;;;8363428;28;19932;-50
2021/11/06 21:03:36;;;;;;;;;;;16.10;41.80;;;;;;8363951;28;19925;-50
2021/11/06 21:07:37;;;;;;;;;;;16.10;41.70;;;;;;8363762;28;19924;-51
2021/11/06 21:11:43;;;;;;;;;;;16.10;41.80;;;;;;8363228;28;19917;-53
2021/11/06 21:15:56;;;;;;;;;;;16.10;41.70;;;;;;8363916;28;19943;-49
2021/11/06 21:19:56;;;;;;;;;;;16.10;41.80;;;;;;8363312;28;19920;-49
2021/11/06 21:23:59;;;;;;;;;;;16.10;41.70;;;;;;8362804;28;20290;-47
2021/11/06 21:28:00;;;;;;;;;;;16.10;41.70;;;;;;8363122;28;19924;-48
2021/11/06 21:32:02;;;;;;;;;;;16.10;41.70;;;;;;8363361;28;19974;-48
2021/11/06 21:36:12;;;;;;;;;;;16.00;41.60;;;;;;8363068;28;19917;-49
2021/11/06 21:40:15;;;;;;;;;;;16.10;41.60;;;;;;8364743;28;19917;-49
2021/11/06 21:44:16;;;;;;;;;;;16.10;41.60;;;;;;8362728;28;19925;-48
2021/11/06 21:48:16;;;;;;;;;;;16.00;41.60;;;;;;8368456;28;19917;-48
2021/11/06 21:52:17;;;;;;;;;;;16.00;41.60;;;;;;8369459;28;20405;-47
2021/11/06 21:56:18;;;;;;;;;;;16.00;41.60;;;;;;8369014;28;19920;-46
2021/11/06 22:00:23;;;;;;;;;;;16.00;41.60;;;;;;8369266;28;19948;-48
2021/11/06 22:04:24;;;;;;;;;;;16.00;41.60;;;;;;8368995;28;20020;-48
2021/11/06 22:08:26;;;;;;;;;;;16.00;41.60;;;;;;8368439;28;19917;-48
2021/11/06 22:12:27;;;;;;;;;;;15.90;41.50;;;;;;8368680;28;19970;-48
2021/11/06 22:16:27;;;;;;;;;;;16.00;41.60;;;;;;8368906;28;19921;-48
2021/11/06 22:20:29;;;;;;;;;;;16.00;41.60;;;;;;8368016;28;19923;-48
2021/11/06 22:24:30;;;;;;;;;;;16.00;41.60;;;;;;8368921;28;19917;-49
2021/11/06 22:28:30;;;;;;;;;;;16.00;41.70;;;;;;8368387;28;19917;-48
2021/11/06 22:32:31;;;;;;;;;;;16.00;41.60;;;;;;8367831;28;19921;-48
2021/11/06 22:36:31;;;;;;;;;;;16.00;41.60;;;;;;8368807;28;20008;-47
2021/11/06 22:40:32;;;;;;;;;;;16.00;41.60;;;;;;8368107;28;19924;-47
2021/11/06 22:44:32;;;;;;;;;;;16.00;41.60;;;;;;8367401;28;19948;-47
2021/11/06 22:48:33;;;;;;;;;;;16.00;41.50;;;;;;8367597;28;19979;-48
2021/11/06 22:52:34;;;;;;;;;;;16.00;41.50;;;;;;8367364;28;19917;-50
2021/11/06 22:56:35;;;;;;;;;;;16.00;41.40;;;;;;8367265;28;20015;-47
2021/11/06 23:00:48;;;;;;;;;;;16.00;41.40;;;;;;8368183;28;19917;-48
2021/11/06 23:04:49;;;;;;;;;;;16.00;41.40;;;;;;8357778;28;20003;-49
2021/11/06 23:08:57;;;;;;;;;;;16.00;41.40;;;;;;8366681;28;19952;-48
2021/11/06 23:12:59;;;;;;;;;;;16.10;41.30;;;;;;8367353;28;19921;-48
2021/11/06 23:16:59;;;;;;;;;;;16.00;41.30;;;;;;8367111;28;20397;-48
2021/11/06 23:21:00;;;;;;;;;;;16.10;41.30;;;;;;8366509;28;19925;-53
2021/11/06 23:25:01;;;;;;;;;;;16.10;41.30;;;;;;8366665;28;20381;-48
2021/11/06 23:29:02;;;;;;;;;;;16.10;41.30;;;;;;8366545;28;19928;-49